Time;durP1;ratioP1;P1;durP2;ratioP2;P2;SDS_P1;SDS_P2;PMS_P1;PMS_P2;Temp;Humidity;BMP_temperature;BMP_pressure;BME280_temperature;BME280_humidity;BME280_pressure;Samples;Min_cycle;Max_cycle;Signal;HPM_P1;HPM_P2
2023/09/25 00:00:49;;;;;;;;;;;;;;;17.61;nan;102895.09;4981584;28;19921;-91
2023/09/25 00:03:16;;;;;;;;;;;;;;;17.57;nan;102895.78;4981683;28;19933;-91
2023/09/25 00:05:51;;;;;;;;;;;;;;;17.54;nan;102888.97;4980661;28;20464;-91
2023/09/25 00:08:17;;;;;;;;;;;;;;;17.51;nan;102894.88;4983266;28;19968;-90
2023/09/25 00:10:47;;;;;;;;;;;;;;;17.50;nan;102895.94;4982822;28;19968;-91
2023/09/25 00:13:15;;;;;;;;;;;;;;;17.48;nan;102895.38;4981242;28;20016;-91
2023/09/25 00:15:44;;;;;;;;;;;;;;;17.45;nan;102898.56;4995509;28;19930;-91
2023/09/25 00:18:11;;;;;;;;;;;;;;;17.42;nan;102897.16;4983397;28;19929;-91
2023/09/25 00:20:37;;;;;;;;;;;;;;;17.38;nan;102895.97;4982948;28;19968;-91
2023/09/25 00:23:05;;;;;;;;;;;;;;;17.36;nan;102894.59;4981496;28;20062;-91
2023/09/25 00:25:31;;;;;;;;;;;;;;;17.34;nan;102899.41;4980086;28;19945;-92
2023/09/25 00:27:59;;;;;;;;;;;;;;;17.32;nan;102898.84;4981816;28;19925;-91
2023/09/25 00:30:25;;;;;;;;;;;;;;;17.27;nan;102899.56;5005076;28;19918;-90
2023/09/25 00:32:51;;;;;;;;;;;;;;;17.24;nan;102896.53;4980043;28;19929;-91
2023/09/25 00:35:18;;;;;;;;;;;;;;;17.22;nan;102897.56;4981161;28;19926;-91
2023/09/25 00:37:46;;;;;;;;;;;;;;;17.20;nan;102907.00;4978774;28;19930;-90
2023/09/25 00:40:18;;;;;;;;;;;;;;;17.17;nan;102905.59;4980706;28;19929;-91
2023/09/25 00:42:49;;;;;;;;;;;;;;;17.15;nan;102905.03;4979642;28;19924;-90
2023/09/25 00:45:18;;;;;;;;;;;;;;;17.11;nan;102903.84;4982640;28;19918;-90
2023/09/25 00:47:47;;;;;;;;;;;;;;;17.07;nan;102905.41;4998454;28;19918;-91
2023/09/25 00:50:12;;;;;;;;;;;;;;;17.03;nan;102904.22;4996639;28;20024;-91
2023/09/25 00:52:41;;;;;;;;;;;;;;;17.01;nan;102903.63;4979837;28;20028;-91
2023/09/25 00:55:08;;;;;;;;;;;;;;;16.98;nan;102903.28;4978060;28;19918;-91
2023/09/25 00:57:39;;;;;;;;;;;;;;;16.96;nan;102900.81;4995957;28;19926;-91
2023/09/25 01:00:06;;;;;;;;;;;;;;;16.94;nan;102899.41;4980644;28;19925;-91
2023/09/25 01:02:32;;;;;;;;;;;;;;;16.90;nan;102893.66;4979052;28;19957;-91
2023/09/25 01:05:01;;;;;;;;;;;;;;;16.86;nan;102890.59;4978886;28;20468;-91
2023/09/25 01:07:29;;;;;;;;;;;;;;;16.83;nan;102896.47;4976336;28;19926;-91
2023/09/25 01:10:10;;;;;;;;;;;;;;;16.79;nan;102889.09;4982190;28;20412;-91
2023/09/25 01:12:37;;;;;;;;;;;;;;;16.74;nan;102894.38;4981316;28;19924;-91
2023/09/25 01:15:03;;;;;;;;;;;;;;;16.71;nan;102884.03;4978516;28;20290;-91
2023/09/25 01:17:30;;;;;;;;;;;;;;;16.69;nan;102886.13;4979042;28;19959;-90
2023/09/25 01:19:56;;;;;;;;;;;;;;;16.67;nan;102880.13;4982784;28;21093;-91
2023/09/25 01:22:25;;;;;;;;;;;;;;;16.65;nan;102884.94;4981599;28;20370;-91
2023/09/25 01:24:55;;;;;;;;;;;;;;;16.59;nan;102882.13;4979364;28;19929;-91
2023/09/25 01:27:28;;;;;;;;;;;;;;;16.57;nan;102883.44;4982215;28;19936;-91
2023/09/25 01:29:53;;;;;;;;;;;;;;;16.56;nan;102887.19;4978851;28;19964;-91
2023/09/25 01:32:20;;;;;;;;;;;;;;;16.55;nan;102885.56;4982926;28;20225;-91
2023/09/25 01:34:46;;;;;;;;;;;;;;;16.51;nan;102887.88;4999286;28;20241;-90
2023/09/25 01:37:11;;;;;;;;;;;;;;;16.48;nan;102890.25;4994204;28;19959;-90
2023/09/25 01:39:37;;;;;;;;;;;;;;;16.44;nan;102889.88;4985786;28;19930;-91
2023/09/25 01:42:03;;;;;;;;;;;;;;;16.40;nan;102890.59;4986705;28;19917;-90
2023/09/25 01:44:30;;;;;;;;;;;;;;;16.36;nan;102886.72;4983299;28;20365;-91
2023/09/25 01:46:56;;;;;;;;;;;;;;;16.34;nan;102878.84;4985038;28;19922;-91
2023/09/25 01:49:23;;;;;;;;;;;;;;;16.32;nan;102878.22;4988845;28;19937;-91
2023/09/25 01:51:50;;;;;;;;;;;;;;;16.29;nan;102879.53;4999616;28;19962;-90
2023/09/25 01:54:24;;;;;;;;;;;;;;;16.27;nan;102875.41;4989477;28;19925;-90
2023/09/25 01:56:50;;;;;;;;;;;;;;;16.26;nan;102871.88;4986067;28;19922;-90
2023/09/25 01:59:16;;;;;;;;;;;;;;;16.28;nan;102867.06;5002357;28;19972;-90
2023/09/25 02:01:42;;;;;;;;;;;;;;;16.33;nan;102867.19;4986923;28;19945;-91
2023/09/25 02:04:09;;;;;;;;;;;;;;;16.41;nan;102873.31;4981190;28;19961;-91
2023/09/25 02:06:34;;;;;;;;;;;;;;;16.46;nan;102865.31;4985196;28;20298;-90
2023/09/25 02:09:01;;;;;;;;;;;;;;;16.53;nan;102864.13;4979109;28;19945;-91
2023/09/25 02:11:26;;;;;;;;;;;;;;;16.59;nan;102871.31;4984984;28;19933;-91
2023/09/25 02:13:55;;;;;;;;;;;;;;;16.64;nan;102862.47;4999443;28;19918;-91
2023/09/25 02:16:38;;;;;;;;;;;;;;;16.70;nan;102868.88;4985841;28;20432;-91
2023/09/25 02:19:04;;;;;;;;;;;;;;;16.74;nan;102872.72;4984042;28;19979;-91
2023/09/25 02:21:30;;;;;;;;;;;;;;;16.77;nan;102869.56;4980509;28;19957;-91
2023/09/25 02:23:57;;;;;;;;;;;;;;;16.78;nan;102868.47;4984746;28;20546;-90
2023/09/25 02:26:25;;;;;;;;;;;;;;;16.79;nan;102870.13;4999911;28;20386;-91
2023/09/25 02:28:51;;;;;;;;;;;;;;;16.76;nan;102870.59;4983927;28;19921;-92
2023/09/25 02:31:19;;;;;;;;;;;;;;;16.71;nan;102870.50;4984753;28;19932;-91
2023/09/25 02:33:47;;;;;;;;;;;;;;;16.66;nan;102870.34;4984663;28;20047;-91
2023/09/25 02:36:13;;;;;;;;;;;;;;;16.58;nan;102874.25;4999767;28;19957;-91
2023/09/25 02:38:39;;;;;;;;;;;;;;;16.53;nan;102872.25;4982598;28;20025;-90
2023/09/25 02:41:04;;;;;;;;;;;;;;;16.51;nan;102871.63;4980497;28;20520;-91
2023/09/25 02:43:31;;;;;;;;;;;;;;;16.49;nan;102871.06;4982180;28;20310;-90
2023/09/25 02:45:57;;;;;;;;;;;;;;;16.50;nan;102870.00;4982937;28;19921;-90
2023/09/25 02:48:25;;;;;;;;;;;;;;;16.45;nan;102869.88;4980323;28;19921;-90
2023/09/25 02:50:50;;;;;;;;;;;;;;;16.45;nan;102875.31;4982788;28;20066;-90
2023/09/25 02:53:16;;;;;;;;;;;;;;;16.44;nan;102872.84;4981878;28;20396;-91
2023/09/25 02:55:49;;;;;;;;;;;;;;;16.39;nan;102865.44;4981868;28;19921;-90
2023/09/25 02:58:19;;;;;;;;;;;;;;;16.33;nan;102866.34;4981977;28;19930;-90
2023/09/25 03:00:47;;;;;;;;;;;;;;;16.28;nan;102868.94;4995588;28;19918;-91
2023/09/25 03:03:14;;;;;;;;;;;;;;;16.21;nan;102869.06;4981179;28;19922;-90
2023/09/25 03:05:40;;;;;;;;;;;;;;;16.17;nan;102872.50;4978437;28;20223;-91
2023/09/25 03:08:05;;;;;;;;;;;;;;;16.12;nan;102875.03;4977256;28;19922;-90
2023/09/25 03:10:32;;;;;;;;;;;;;;;16.07;nan;102869.53;4982845;28;20259;-90
2023/09/25 03:13:01;;;;;;;;;;;;;;;16.02;nan;102878.34;4983482;28;19925;-90
2023/09/25 03:15:28;;;;;;;;;;;;;;;15.96;nan;102876.53;4999347;28;20452;-90
2023/09/25 03:17:54;;;;;;;;;;;;;;;15.93;nan;102883.25;4977092;28;20146;-90
2023/09/25 03:20:19;;;;;;;;;;;;;;;15.92;nan;102887.00;4980692;28;19965;-90
2023/09/25 03:22:48;;;;;;;;;;;;;;;15.92;nan;102870.78;4978376;28;19976;-90
2023/09/25 03:25:13;;;;;;;;;;;;;;;15.91;nan;102873.72;4982762;28;19918;-90
2023/09/25 03:27:39;;;;;;;;;;;;;;;15.90;nan;102866.66;4979666;28;19926;-90
2023/09/25 03:30:05;;;;;;;;;;;;;;;15.89;nan;102859.63;4979022;28;20028;-90
2023/09/25 03:32:31;;;;;;;;;;;;;;;15.86;nan;102863.63;4982791;28;19921;-90
2023/09/25 03:34:57;;;;;;;;;;;;;;;15.84;nan;102862.19;4979898;28;19964;-90
2023/09/25 03:37:23;;;;;;;;;;;;;;;15.79;nan;102865.56;4976193;28;19988;-91
2023/09/25 03:39:48;;;;;;;;;;;;;;;15.76;nan;102860.63;4980643;28;19969;-91
2023/09/25 03:42:15;;;;;;;;;;;;;;;15.75;nan;102875.22;4979395;28;19925;-91
2023/09/25 03:44:41;;;;;;;;;;;;;;;15.71;nan;102872.16;4995725;28;19926;-91
2023/09/25 03:47:07;;;;;;;;;;;;;;;15.69;nan;102876.13;4997700;28;20020;-90
2023/09/25 03:49:32;;;;;;;;;;;;;;;15.67;nan;102879.06;4994947;28;19941;-91
2023/09/25 03:51:58;;;;;;;;;;;;;;;15.68;nan;102874.50;4979643;28;19921;-90
2023/09/25 03:54:24;;;;;;;;;;;;;;;15.69;nan;102876.13;4994621;28;20063;-89
2023/09/25 03:56:50;;;;;;;;;;;;;;;15.68;nan;102866.38;4979089;28;19936;-91
2023/09/25 03:59:16;;;;;;;;;;;;;;;15.69;nan;102868.03;4981718;28;19933;-90
2023/09/25 04:01:42;;;;;;;;;;;;;;;15.71;nan;102869.44;4996530;28;20427;-90
2023/09/25 04:04:08;;;;;;;;;;;;;;;15.73;nan;102865.69;5001034;28;19937;-90
2023/09/25 04:06:35;;;;;;;;;;;;;;;15.72;nan;102864.88;4998983;28;19963;-91
2023/09/25 04:09:03;;;;;;;;;;;;;;;15.74;nan;102867.34;4978496;28;19918;-90
2023/09/25 04:11:38;;;;;;;;;;;;;;;15.77;nan;102865.00;4979356;28;20002;-90
2023/09/25 04:14:03;;;;;;;;;;;;;;;15.81;nan;102862.66;4992828;28;19926;-91
2023/09/25 04:16:29;;;;;;;;;;;;;;;15.85;nan;102867.38;4979357;28;20386;-90
2023/09/25 04:18:55;;;;;;;;;;;;;;;15.90;nan;102869.38;4979105;28;20366;-90
2023/09/25 04:21:21;;;;;;;;;;;;;;;15.94;nan;102867.84;4980417;28;19921;-90
2023/09/25 04:23:48;;;;;;;;;;;;;;;15.99;nan;102871.53;4977449;28;19922;-90
2023/09/25 04:26:14;;;;;;;;;;;;;;;16.03;nan;102866.47;4980712;28;19930;-91
2023/09/25 04:28:40;;;;;;;;;;;;;;;16.07;nan;102859.53;4978281;28;20052;-90
2023/09/25 04:31:06;;;;;;;;;;;;;;;16.13;nan;102860.47;4979126;28;20069;-90
2023/09/25 04:33:32;;;;;;;;;;;;;;;16.18;nan;102864.13;4980162;28;20289;-90
2023/09/25 04:36:04;;;;;;;;;;;;;;;16.23;nan;102866.94;4990078;28;19933;-91
2023/09/25 04:38:30;;;;;;;;;;;;;;;16.29;nan;102873.31;4975912;28;19930;-91
2023/09/25 04:40:57;;;;;;;;;;;;;;;16.35;nan;102871.56;4979154;28;20004;-90
2023/09/25 04:43:22;;;;;;;;;;;;;;;16.38;nan;102866.50;4995471;28;19918;-90
2023/09/25 04:45:51;;;;;;;;;;;;;;;16.42;nan;102873.06;4979916;28;19941;-90
2023/09/25 04:48:18;;;;;;;;;;;;;;;16.44;nan;102873.66;4975243;28;21174;-90
2023/09/25 04:50:43;;;;;;;;;;;;;;;16.49;nan;102876.47;4974449;28;20500;-91
2023/09/25 04:53:09;;;;;;;;;;;;;;;16.50;nan;102872.72;4976327;28;21320;-90
2023/09/25 04:55:36;;;;;;;;;;;;;;;16.54;nan;102871.19;4980187;28;19937;-90
2023/09/25 04:58:02;;;;;;;;;;;;;;;16.57;nan;102868.00;4979534;28;20306;-90
2023/09/25 05:00:28;;;;;;;;;;;;;;;16.58;nan;102866.94;4979882;28;19934;-90
2023/09/25 05:02:55;;;;;;;;;;;;;;;16.61;nan;102863.75;4978769;28;19984;-90
2023/09/25 05:05:21;;;;;;;;;;;;;;;16.63;nan;102867.06;4976960;28;19936;-90
2023/09/25 05:07:50;;;;;;;;;;;;;;;16.66;nan;102870.34;4977285;28;20643;-89
2023/09/25 05:10:18;;;;;;;;;;;;;;;16.66;nan;102870.34;4978587;28;19937;-90
2023/09/25 05:12:43;;;;;;;;;;;;;;;16.68;nan;102873.66;4983465;28;20468;-90
2023/09/25 05:15:10;;;;;;;;;;;;;;;16.69;nan;102875.31;4995830;28;20029;-90
2023/09/25 05:17:38;;;;;;;;;;;;;;;16.71;nan;102867.81;4982119;28;20025;-91
2023/09/25 05:20:11;;;;;;;;;;;;;;;16.70;nan;102876.97;4980609;28;19929;-91
2023/09/25 05:22:38;;;;;;;;;;;;;;;16.69;nan;102876.13;4981965;28;19936;-90
2023/09/25 05:25:07;;;;;;;;;;;;;;;16.70;nan;102866.16;4979912;28;20381;-91
2023/09/25 05:27:34;;;;;;;;;;;;;;;16.71;nan;102874.03;4983775;28;20389;-90
2023/09/25 05:30:00;;;;;;;;;;;;;;;16.71;nan;102868.63;4980787;28;19926;-90
2023/09/25 05:32:35;;;;;;;;;;;;;;;16.73;nan;102880.03;4982259;28;19925;-90
2023/09/25 05:35:07;;;;;;;;;;;;;;;16.73;nan;102884.63;4984222;28;20016;-90
2023/09/25 05:37:34;;;;;;;;;;;;;;;16.75;nan;102880.63;4980843;28;19922;-91
2023/09/25 05:40:03;;;;;;;;;;;;;;;16.77;nan;102894.72;4980300;28;19918;-90
2023/09/25 05:42:29;;;;;;;;;;;;;;;16.80;nan;102896.13;4980373;28;20061;-90
2023/09/25 05:44:54;;;;;;;;;;;;;;;16.84;nan;102897.31;4998714;28;20566;-90
2023/09/25 05:47:23;;;;;;;;;;;;;;;16.88;nan;102901.22;4982445;28;19988;-92
2023/09/25 05:49:50;;;;;;;;;;;;;;;16.94;nan;102899.41;4980284;28;20406;-92
2023/09/25 05:52:16;;;;;;;;;;;;;;;16.99;nan;102905.75;4980620;28;19922;-91
2023/09/25 05:54:42;;;;;;;;;;;;;;;17.05;nan;102902.09;4981640;28;19928;-92
2023/09/25 05:57:08;;;;;;;;;;;;;;;17.10;nan;102904.09;4993752;28;19929;-91
2023/09/25 05:59:35;;;;;;;;;;;;;;;17.15;nan;102901.50;4982708;28;19926;-90
2023/09/25 06:02:03;;;;;;;;;;;;;;;17.19;nan;102899.94;4981823;28;19922;-92
2023/09/25 06:04:34;;;;;;;;;;;;;;;17.27;nan;102893.34;4982479;28;19917;-92
2023/09/25 06:07:00;;;;;;;;;;;;;;;17.34;nan;102902.13;4983205;28;19933;-92
2023/09/25 06:09:26;;;;;;;;;;;;;;;17.41;nan;102905.50;4980035;28;20586;-92
2023/09/25 06:11:52;;;;;;;;;;;;;;;17.49;nan;102897.00;4981694;28;20660;-92
2023/09/25 06:14:21;;;;;;;;;;;;;;;17.56;nan;102907.69;4988104;28;19926;-92
2023/09/25 06:16:50;;;;;;;;;;;;;;;17.66;nan;102897.06;4991354;28;19926;-91
2023/09/25 06:19:17;;;;;;;;;;;;;;;17.74;nan;102894.78;4996823;28;20263;-92
2023/09/25 06:21:45;;;;;;;;;;;;;;;17.87;nan;102896.38;4993560;28;19922;-92
2023/09/25 06:24:15;;;;;;;;;;;;;;;17.99;nan;102890.88;4984138;28;19941;-92
2023/09/25 06:26:46;;;;;;;;;;;;;;;18.09;nan;102902.72;4985299;28;19925;-93
2023/09/25 06:29:14;;;;;;;;;;;;;;;18.20;nan;102901.00;4986481;28;19930;-91
2023/09/25 06:31:42;;;;;;;;;;;;;;;18.32;nan;102906.34;4986524;28;20440;-91
2023/09/25 06:34:11;;;;;;;;;;;;;;;18.41;nan;102888.56;4981071;28;19922;-92
2023/09/25 06:36:38;;;;;;;;;;;;;;;18.51;nan;102894.16;4982088;28;20099;-91
2023/09/25 06:39:09;;;;;;;;;;;;;;;18.61;nan;102902.44;4978417;28;19934;-91
2023/09/25 06:41:38;;;;;;;;;;;;;;;18.71;nan;102899.09;4985833;28;20084;-91
2023/09/25 06:44:07;;;;;;;;;;;;;;;18.81;nan;102903.81;4981537;28;19921;-91
2023/09/25 06:46:33;;;;;;;;;;;;;;;18.92;nan;102901.00;4983762;28;19922;-91
2023/09/25 06:49:00;;;;;;;;;;;;;;;19.03;nan;102901.97;4989745;28;19922;-91
2023/09/25 06:51:26;;;;;;;;;;;;;;;19.16;nan;102889.88;4991584;28;19929;-91
2023/09/25 06:53:53;;;;;;;;;;;;;;;19.27;nan;102888.91;4966331;28;20173;-92
2023/09/25 06:56:19;;;;;;;;;;;;;;;19.41;nan;102887.47;4985381;28;19918;-91
2023/09/25 06:58:46;;;;;;;;;;;;;;;19.58;nan;102890.94;4984543;28;19951;-91
2023/09/25 07:01:12;;;;;;;;;;;;;;;19.69;nan;102882.84;4997286;28;19933;-91
2023/09/25 07:03:39;;;;;;;;;;;;;;;19.83;nan;102889.53;4980463;28;19921;-92
2023/09/25 07:06:05;;;;;;;;;;;;;;;19.97;nan;102884.47;4996589;28;19924;-91
2023/09/25 07:08:32;;;;;;;;;;;;;;;20.12;nan;102887.31;4984638;28;19921;-91
2023/09/25 07:11:00;;;;;;;;;;;;;;;20.25;nan;102884.13;4998906;28;20068;-91
2023/09/25 07:13:27;;;;;;;;;;;;;;;20.38;nan;102877.44;4986362;28;19987;-91
2023/09/25 07:16:03;;;;;;;;;;;;;;;20.51;nan;102885.19;4982094;28;20012;-91
2023/09/25 07:18:33;;;;;;;;;;;;;;;20.58;nan;102885.75;4984073;28;19930;-92
2023/09/25 07:20:58;;;;;;;;;;;;;;;20.65;nan;102883.63;4983163;28;19925;-92
2023/09/25 07:23:25;;;;;;;;;;;;;;;20.76;nan;102881.75;4985620;28;19944;-92
2023/09/25 07:26:15;;;;;;;;;;;;;;;20.91;nan;102878.28;4990382;28;19925;-92
2023/09/25 07:28:42;;;;;;;;;;;;;;;21.06;nan;102878.34;4987304;28;20012;-91
2023/09/25 07:31:09;;;;;;;;;;;;;;;21.18;nan;102876.19;4979113;28;19969;-92
2023/09/25 07:33:34;;;;;;;;;;;;;;;21.29;nan;102885.28;4979795;28;19929;-91
2023/09/25 07:36:04;;;;;;;;;;;;;;;21.44;nan;102887.22;4981433;28;19926;-91
2023/09/25 07:38:29;;;;;;;;;;;;;;;21.58;nan;102888.34;4979587;28;19930;-90
2023/09/25 07:40:57;;;;;;;;;;;;;;;21.66;nan;102876.88;4980048;28;19980;-91
2023/09/25 07:43:23;;;;;;;;;;;;;;;21.79;nan;102881.81;4977398;28;19989;-92
2023/09/25 07:45:52;;;;;;;;;;;;;;;21.92;nan;102883.19;4982584;28;19925;-91
2023/09/25 07:48:20;;;;;;;;;;;;;;;22.05;nan;102882.66;4978451;28;20015;-91
2023/09/25 07:50:55;;;;;;;;;;;;;;;22.12;nan;102879.66;4974900;28;19921;-91
2023/09/25 07:53:23;;;;;;;;;;;;;;;22.24;nan;102881.00;4994856;28;19962;-91
2023/09/25 07:55:50;;;;;;;;;;;;;;;22.37;nan;102882.34;4984346;28;19921;-90
2023/09/25 07:58:15;;;;;;;;;;;;;;;22.51;nan;102886.16;4978716;28;19929;-92
2023/09/25 08:00:44;;;;;;;;;;;;;;;22.62;nan;102886.91;4981522;28;19922;-91
2023/09/25 08:03:16;;;;;;;;;;;;;;;22.72;nan;102880.63;4980383;28;20005;-91
2023/09/25 08:05:45;;;;;;;;;;;;;;;22.78;nan;102876.75;4982479;28;19922;-90
2023/09/25 08:08:11;;;;;;;;;;;;;;;22.82;nan;102875.97;4978566;28;19949;-91
2023/09/25 08:10:44;;;;;;;;;;;;;;;22.94;nan;102872.91;4976062;28;19991;-91
2023/09/25 08:13:11;;;;;;;;;;;;;;;22.99;nan;102881.09;4977955;28;19990;-91
2023/09/25 08:15:38;;;;;;;;;;;;;;;23.05;nan;102879.97;4995244;28;19922;-91
2023/09/25 08:18:03;;;;;;;;;;;;;;;23.11;nan;102864.34;4999072;28;19921;-91
2023/09/25 08:20:28;;;;;;;;;;;;;;;23.19;nan;102870.06;5006774;28;19937;-91
2023/09/25 08:22:57;;;;;;;;;;;;;;;23.33;nan;102874.88;4984374;28;19918;-90
2023/09/25 08:25:26;;;;;;;;;;;;;;;23.54;nan;102876.41;4984080;28;19933;-90
2023/09/25 08:27:53;;;;;;;;;;;;;;;23.66;nan;102874.16;4981903;28;19973;-92
2023/09/25 08:30:22;;;;;;;;;;;;;;;23.85;nan;102884.41;4985031;28;19965;-92
2023/09/25 08:32:52;;;;;;;;;;;;;;;24.01;nan;102878.50;5006458;28;20390;-91
2023/09/25 08:35:32;;;;;;;;;;;;;;;24.19;nan;102879.72;4982791;28;20781;-92
2023/09/25 08:37:58;;;;;;;;;;;;;;;24.35;nan;102881.22;4979508;28;19925;-91
2023/09/25 08:40:24;;;;;;;;;;;;;;;24.56;nan;102883.75;4983781;28;20746;-91
2023/09/25 08:42:52;;;;;;;;;;;;;;;24.71;nan;102883.56;4995941;28;19934;-90
2023/09/25 08:45:19;;;;;;;;;;;;;;;24.79;nan;102880.22;5006736;28;19918;-91
2023/09/25 08:47:46;;;;;;;;;;;;;;;24.92;nan;102882.22;4990780;28;20954;-92
2023/09/25 08:50:12;;;;;;;;;;;;;;;25.00;nan;102878.88;4988124;28;20207;-91
2023/09/25 08:52:44;;;;;;;;;;;;;;;25.10;nan;102879.81;4988180;28;19926;-90
2023/09/25 08:55:20;;;;;;;;;;;;;;;25.19;nan;102876.13;4987718;28;19921;-90
2023/09/25 08:57:50;;;;;;;;;;;;;;;25.31;nan;102878.44;4989358;28;19957;-91
2023/09/25 09:00:16;;;;;;;;;;;;;;;25.40;nan;102873.09;4986602;28;19973;-91
2023/09/25 09:02:43;;;;;;;;;;;;;;;25.48;nan;102875.16;4988312;28;19960;-91
2023/09/25 09:05:13;;;;;;;;;;;;;;;25.55;nan;102870.13;5004167;28;19921;-91
2023/09/25 09:07:55;;;;;;;;;;;;;;;25.70;nan;102866.34;4987749;28;19922;-91
2023/09/25 09:10:37;;;;;;;;;;;;;;;25.82;nan;102870.25;4984844;28;20424;-92
2023/09/25 09:13:10;;;;;;;;;;;;;;;26.00;nan;102871.31;4988740;28;20297;-91
2023/09/25 09:15:41;;;;;;;;;;;;;;;26.19;nan;102861.06;4981692;28;19925;-91
2023/09/25 09:18:25;;;;;;;;;;;;;;;26.37;nan;102867.63;5002139;28;20188;-92
2023/09/25 09:20:52;;;;;;;;;;;;;;;26.53;nan;102868.16;4988443;28;19929;-91
2023/09/25 09:23:39;;;;;;;;;;;;;;;26.67;nan;102860.72;4989160;28;20462;-91
2023/09/25 09:26:07;;;;;;;;;;;;;;;26.85;nan;102852.66;4982774;28;19964;-91
2023/09/25 09:28:34;;;;;;;;;;;;;;;26.99;nan;102850.72;4985882;28;19925;-90
2023/09/25 09:31:00;;;;;;;;;;;;;;;27.10;nan;102849.38;5006755;28;19926;-91
2023/09/25 09:33:29;;;;;;;;;;;;;;;27.16;nan;102858.34;4985391;28;19926;-90
2023/09/25 09:35:55;;;;;;;;;;;;;;;27.25;nan;102851.78;4980563;28;19925;-90
2023/09/25 09:38:22;;;;;;;;;;;;;;;27.37;nan;102854.00;4981638;28;20770;-90
2023/09/25 09:40:49;;;;;;;;;;;;;;;27.36;nan;102850.44;4996537;28;19917;-90
2023/09/25 09:43:18;;;;;;;;;;;;;;;27.35;nan;102845.25;4986363;28;19926;-91
2023/09/25 09:45:50;;;;;;;;;;;;;;;27.36;nan;102841.34;4984365;28;19962;-90
2023/09/25 09:48:18;;;;;;;;;;;;;;;27.53;nan;102840.69;4984216;28;19944;-91
2023/09/25 09:50:49;;;;;;;;;;;;;;;27.71;nan;102836.94;4989567;28;19917;-90
2023/09/25 09:53:17;;;;;;;;;;;;;;;27.79;nan;102830.66;4989425;28;20517;-91
2023/09/25 09:55:44;;;;;;;;;;;;;;;27.93;nan;102827.84;4992877;28;20358;-91
2023/09/25 09:58:11;;;;;;;;;;;;;;;28.07;nan;102827.75;4987571;28;20552;-91
2023/09/25 10:00:38;;;;;;;;;;;;;;;28.17;nan;102822.75;4989065;28;19918;-88
2023/09/25 10:03:11;;;;;;;;;;;;;;;28.28;nan;102818.63;4988897;28;19922;-91
2023/09/25 10:05:49;;;;;;;;;;;;;;;28.37;nan;102815.91;4988054;28;19918;-91
2023/09/25 10:08:21;;;;;;;;;;;;;;;28.53;nan;102814.31;4985294;28;19925;-90
2023/09/25 10:10:50;;;;;;;;;;;;;;;28.70;nan;102815.47;4990563;28;19953;-89
2023/09/25 10:13:26;;;;;;;;;;;;;;;28.89;nan;102811.31;4986829;28;19918;-90
2023/09/25 10:15:55;;;;;;;;;;;;;;;29.05;nan;102808.91;4994533;28;20137;-89
2023/09/25 10:18:22;;;;;;;;;;;;;;;29.13;nan;102815.56;4984503;28;19929;-91
2023/09/25 10:20:48;;;;;;;;;;;;;;;29.29;nan;102819.47;4982262;28;19918;-91
2023/09/25 10:23:20;;;;;;;;;;;;;;;29.42;nan;102809.38;4974639;28;19929;-90
2023/09/25 10:25:53;;;;;;;;;;;;;;;29.47;nan;102803.72;4980974;28;19928;-92
2023/09/25 10:28:31;;;;;;;;;;;;;;;29.52;nan;102806.31;4981729;28;19917;-90
2023/09/25 10:31:01;;;;;;;;;;;;;;;29.62;nan;102799.59;4988563;28;19933;-90
2023/09/25 10:33:37;;;;;;;;;;;;;;;29.63;nan;102801.25;4985063;28;20450;-89
2023/09/25 10:36:07;;;;;;;;;;;;;;;29.63;nan;102804.84;4982829;28;19922;-91
2023/09/25 10:38:38;;;;;;;;;;;;;;;29.64;nan;102805.66;4978712;28;19934;-90
2023/09/25 10:41:08;;;;;;;;;;;;;;;29.69;nan;102803.50;4980208;28;20271;-91
2023/09/25 10:43:37;;;;;;;;;;;;;;;29.63;nan;102801.25;4982276;28;19937;-91
2023/09/25 10:46:04;;;;;;;;;;;;;;;29.66;nan;102795.88;4975130;28;19933;-90
2023/09/25 10:48:31;;;;;;;;;;;;;;;29.75;nan;102793.09;4978777;28;20020;-91
2023/09/25 10:50:58;;;;;;;;;;;;;;;29.86;nan;102793.53;4993506;28;20020;-91
2023/09/25 10:53:26;;;;;;;;;;;;;;;29.93;nan;102783.59;4979386;28;19988;-90
2023/09/25 10:55:53;;;;;;;;;;;;;;;30.02;nan;102780.81;4980075;28;19922;-92
2023/09/25 10:58:21;;;;;;;;;;;;;;;30.19;nan;102780.75;4976323;28;19930;-90
2023/09/25 11:00:49;;;;;;;;;;;;;;;30.21;nan;102778.47;4976561;28;19926;-91
2023/09/25 11:03:22;;;;;;;;;;;;;;;30.24;nan;102775.03;4978929;28;19926;-93
2023/09/25 11:05:51;;;;;;;;;;;;;;;30.27;nan;102760.53;4974625;28;19925;-90
2023/09/25 11:08:18;;;;;;;;;;;;;;;30.38;nan;102761.78;4984144;28;20616;-92
2023/09/25 11:10:45;;;;;;;;;;;;;;;30.52;nan;102763.47;4982224;28;19928;-91
2023/09/25 11:13:11;;;;;;;;;;;;;;;30.72;nan;102765.47;4983720;28;19980;-91
2023/09/25 11:15:40;;;;;;;;;;;;;;;30.75;nan;102758.47;4986381;28;19926;-89
2023/09/25 11:18:11;;;;;;;;;;;;;;;30.69;nan;102757.84;4998736;28;19984;-92
2023/09/25 11:20:37;;;;;;;;;;;;;;;30.69;nan;102749.53;4993197;28;20020;-92
2023/09/25 11:23:26;;;;;;;;;;;;;;;30.76;nan;102749.00;4983940;28;19934;-92
2023/09/25 11:25:52;;;;;;;;;;;;;;;30.81;nan;102740.50;4980804;28;19925;-92
2023/09/25 11:28:20;;;;;;;;;;;;;;;30.96;nan;102745.41;4982330;28;19918;-91
2023/09/25 11:30:48;;;;;;;;;;;;;;;31.05;nan;102734.25;4981008;28;19929;-92
2023/09/25 11:33:34;;;;;;;;;;;;;;;31.19;nan;102735.59;4982766;28;19929;-91
2023/09/25 11:36:00;;;;;;;;;;;;;;;31.25;nan;102731.50;4983962;28;19941;-91
2023/09/25 11:38:28;;;;;;;;;;;;;;;31.31;nan;102732.06;4977603;28;19926;-91
2023/09/25 11:40:55;;;;;;;;;;;;;;;31.20;nan;102737.22;4975971;28;19922;-92
2023/09/25 11:43:23;;;;;;;;;;;;;;;31.22;nan;102739.66;4981198;28;19923;-91
2023/09/25 11:45:50;;;;;;;;;;;;;;;31.27;nan;102731.16;4981693;28;19929;-91
2023/09/25 11:48:19;;;;;;;;;;;;;;;31.40;nan;102726.44;4998774;28;19930;-90
2023/09/25 11:50:46;;;;;;;;;;;;;;;31.56;nan;102728.19;4976367;28;20421;-89
2023/09/25 11:53:13;;;;;;;;;;;;;;;31.60;nan;102730.28;4976982;28;19921;-91
2023/09/25 11:55:41;;;;;;;;;;;;;;;31.56;nan;102728.19;4989603;28;19922;-90
2023/09/25 11:58:09;;;;;;;;;;;;;;;31.64;nan;102729.25;4986064;28;19922;-90
2023/09/25 12:00:37;;;;;;;;;;;;;;;31.81;nan;102717.19;4982491;28;19926;-90
2023/09/25 12:03:08;;;;;;;;;;;;;;;31.94;nan;102710.47;4993368;28;19975;-91
2023/09/25 12:05:35;;;;;;;;;;;;;;;31.99;nan;102706.66;4973865;28;19926;-88
2023/09/25 12:08:00;;;;;;;;;;;;;;;31.98;nan;102713.38;4975494;28;20000;-89
2023/09/25 12:10:26;;;;;;;;;;;;;;;31.74;nan;102711.38;4969293;28;19926;-92
2023/09/25 12:12:53;;;;;;;;;;;;;;;31.70;nan;102704.91;4978157;28;19925;-90
2023/09/25 12:15:21;;;;;;;;;;;;;;;31.75;nan;102705.50;4969047;28;19925;-91
2023/09/25 12:17:46;;;;;;;;;;;;;;;31.91;nan;102696.50;4979320;28;19917;-91
2023/09/25 12:20:16;;;;;;;;;;;;;;;32.10;nan;102703.06;4977938;28;19928;-90
2023/09/25 12:22:42;;;;;;;;;;;;;;;32.19;nan;102688.28;4975476;28;19925;-92
2023/09/25 12:25:09;;;;;;;;;;;;;;;32.30;nan;102692.19;4977506;28;19930;-91
2023/09/25 12:27:36;;;;;;;;;;;;;;;32.52;nan;102682.56;4974154;28;20534;-91
2023/09/25 12:30:11;;;;;;;;;;;;;;;32.72;nan;102678.78;4978776;28;19981;-90
2023/09/25 12:32:38;;;;;;;;;;;;;;;32.60;nan;102681.59;4975682;28;19926;-92
2023/09/25 12:35:05;;;;;;;;;;;;;;;32.30;nan;102678.31;4978510;28;19960;-92
2023/09/25 12:37:30;;;;;;;;;;;;;;;32.17;nan;102685.84;4977721;28;19937;-91
2023/09/25 12:39:57;;;;;;;;;;;;;;;32.10;nan;102680.06;4991463;28;19926;-90
2023/09/25 12:42:22;;;;;;;;;;;;;;;32.27;nan;102676.25;4974011;28;20365;-90
2023/09/25 12:44:50;;;;;;;;;;;;;;;32.32;nan;102673.25;4977190;28;19928;-93
2023/09/25 12:47:16;;;;;;;;;;;;;;;32.33;nan;102666.56;4995466;28;19924;-91
2023/09/25 12:49:44;;;;;;;;;;;;;;;32.50;nan;102665.44;4977891;28;19918;-91
2023/09/25 12:52:13;;;;;;;;;;;;;;;32.69;nan;102666.41;4977403;28;19921;-89
2023/09/25 12:54:39;;;;;;;;;;;;;;;32.75;nan;102659.44;4974723;28;19926;-91
2023/09/25 12:57:06;;;;;;;;;;;;;;;32.85;nan;102665.66;4975371;28;19926;-90
2023/09/25 12:59:33;;;;;;;;;;;;;;;32.96;nan;102662.03;4972463;28;19937;-91
2023/09/25 13:01:59;;;;;;;;;;;;;;;33.15;nan;102672.44;4977411;28;19929;-91